aviador You're here:

YEML Decoded Metar

in
Report Time2017-10-23 11:00:00
UTC Time2017-10-23 11:28:17
Flight Rules vfr VFR
Wind070° at 06 kt
W.Decomp.*RWY 06: 5.9 kt HW 1.0 kt RCW
RWY 15: 1.0 kt HW 5.9 kt LCW
W.Rank070° ranks 1
Current wind is below 070° avg. (8.0)
Visibility9999 m
Phenomena:N/A
Clouds:N/A
Expected CloudBase > 3,200 ft AGL from Temp-Dew spread
CeilingNone
Temp21°C
Dew Point13°C (60% RH)
AAT19.8°C
QNH1014 hPa
Raw Report
METAR YEML 231100Z AUTO 07006KT 9999 // NCD 21/13 Q1014=

Extra information for YEML:More info

Social comments